createdAt,value
2022-08-11T00:01:06.071Z,100.00
2022-08-11T00:03:42.347Z,100.00
2022-08-11T00:06:11.539Z,100.00
2022-08-11T00:08:38.819Z,100.00
2022-08-11T00:11:08.802Z,100.00
2022-08-11T00:13:39.206Z,100.00
2022-08-11T00:16:18.638Z,100.00
2022-08-11T00:18:51.303Z,100.00
2022-08-11T00:21:20.905Z,100.00
2022-08-11T00:24:08.723Z,100.00
2022-08-11T00:26:36.886Z,100.00
2022-08-11T00:29:11.170Z,100.00
2022-08-11T00:31:39.106Z,100.00
2022-08-11T00:34:11.418Z,100.00
2022-08-11T00:37:16.160Z,100.00
2022-08-11T00:39:46.937Z,100.00
2022-08-11T00:42:25.597Z,100.00
2022-08-11T00:44:52.220Z,100.00
2022-08-11T00:47:35.738Z,100.00
2022-08-11T00:50:43.168Z,100.00
2022-08-11T00:53:49.629Z,100.00
2022-08-11T00:56:38.255Z,100.00
2022-08-11T00:59:34.358Z,100.00
2022-08-11T01:02:17.252Z,100.00
2022-08-11T01:05:22.414Z,100.00
2022-08-11T01:08:26.611Z,100.00
2022-08-11T01:11:17.784Z,100.00
2022-08-11T01:14:33.669Z,100.00
2022-08-11T01:17:01.352Z,100.00
2022-08-11T01:20:44.750Z,100.00
2022-08-11T01:22:44.256Z,100.00
2022-08-11T01:25:29.069Z,100.00
2022-08-11T01:28:20.509Z,100.00
2022-08-11T01:31:26.566Z,100.00
2022-08-11T01:34:14.826Z,100.00
2022-08-11T01:36:59.454Z,100.00
2022-08-11T01:39:31.760Z,100.00
2022-08-11T01:42:44.722Z,100.00
2022-08-11T01:45:48.912Z,100.00
2022-08-11T01:48:41.271Z,100.00
2022-08-11T01:51:51.391Z,100.00
2022-08-11T01:54:17.931Z,100.00
2022-08-11T01:57:09.313Z,100.00
2022-08-11T01:59:49.391Z,100.00
2022-08-11T02:02:41.846Z,100.00
2022-08-11T02:05:37.888Z,100.00
2022-08-11T02:08:11.641Z,100.00
2022-08-11T02:11:16.954Z,100.00
2022-08-11T02:13:58.431Z,100.00
2022-08-11T02:16:25.024Z,100.00
2022-08-11T02:19:35.296Z,100.00
2022-08-11T02:22:36.873Z,100.00
2022-08-11T02:25:11.358Z,100.00
2022-08-11T02:27:58.005Z,100.00
2022-08-11T02:30:27.592Z,100.00
2022-08-11T02:33:24.815Z,100.00
2022-08-11T02:36:09.339Z,100.00
2022-08-11T02:38:56.987Z,100.00
2022-08-11T02:41:45.312Z,100.00
2022-08-11T02:44:44.908Z,100.00
2022-08-11T02:48:07.863Z,100.00
2022-08-11T02:50:42.645Z,100.00
2022-08-11T02:53:26.722Z,100.00
2022-08-11T02:56:03.509Z,100.00
2022-08-11T02:59:11.891Z,100.00
2022-08-11T03:01:50.375Z,100.00
2022-08-11T03:04:25.236Z,100.00
2022-08-11T03:07:28.057Z,100.00
2022-08-11T03:10:15.235Z,100.00
2022-08-11T03:13:23.208Z,100.00
2022-08-11T03:16:31.625Z,100.00
2022-08-11T03:19:35.531Z,100.00
2022-08-11T03:22:22.116Z,100.00
2022-08-11T03:24:58.921Z,100.00
2022-08-11T03:27:47.021Z,100.00
2022-08-11T03:30:16.257Z,100.00
2022-08-11T03:33:26.502Z,100.00
2022-08-11T03:36:27.954Z,100.00
2022-08-11T03:39:03.477Z,100.00
2022-08-11T03:42:10.070Z,100.00
2022-08-11T03:44:48.918Z,100.00
2022-08-11T03:47:39.700Z,100.00
2022-08-11T03:50:45.651Z,100.00
2022-08-11T03:53:28.329Z,100.00
2022-08-11T03:56:24.632Z,100.00
2022-08-11T03:59:50.270Z,100.00
2022-08-11T04:02:27.627Z,100.00
2022-08-11T04:05:25.283Z,100.00
2022-08-11T04:08:34.393Z,100.00
2022-08-11T04:11:07.315Z,100.00
2022-08-11T04:14:30.477Z,100.00
2022-08-11T04:17:23.568Z,100.00
2022-08-11T04:20:22.940Z,100.00
2022-08-11T04:23:04.709Z,100.00
2022-08-11T04:25:58.569Z,100.00
2022-08-11T04:28:43.095Z,100.00
2022-08-11T04:32:04.994Z,100.00
2022-08-11T04:35:08.300Z,100.00
2022-08-11T04:38:17.065Z,100.00
2022-08-11T04:40:50.190Z,100.00
2022-08-11T04:43:25.893Z,100.00
2022-08-11T04:46:10.726Z,100.00
2022-08-11T04:49:25.835Z,100.00
2022-08-11T04:52:47.073Z,100.00
2022-08-11T04:56:03.588Z,100.00
2022-08-11T04:59:10.632Z,88.65
2022-08-11T05:02:17.096Z,79.16
2022-08-11T05:05:30.817Z,75.11
2022-08-11T05:08:09.199Z,69.94
2022-08-11T05:11:13.017Z,64.89
2022-08-11T05:14:07.102Z,61.89
2022-08-11T05:17:13.310Z,61.61
2022-08-11T05:20:06.003Z,60.54
2022-08-11T05:22:53.052Z,59.62
2022-08-11T05:26:43.960Z,62.34
2022-08-11T05:29:20.507Z,62.17
2022-08-11T05:32:09.673Z,62.47
2022-08-11T05:34:53.086Z,64.12
2022-08-11T05:37:27.553Z,67.28
2022-08-11T05:40:24.498Z,70.87
2022-08-11T05:43:16.830Z,71.83
2022-08-11T05:46:06.292Z,73.02
2022-08-11T05:48:55.006Z,76.78
2022-08-11T05:51:54.522Z,77.47
2022-08-11T05:54:43.080Z,77.37
2022-08-11T05:57:49.551Z,78.30
2022-08-11T06:00:10.412Z,82.28
2022-08-11T06:02:55.296Z,80.90
2022-08-11T06:05:23.067Z,78.37
2022-08-11T06:07:57.174Z,77.60
2022-08-11T06:10:33.556Z,78.86
2022-08-11T06:13:01.803Z,79.66
2022-08-11T06:15:31.127Z,79.08
2022-08-11T06:18:01.374Z,78.25
2022-08-11T06:20:32.814Z,81.74
2022-08-11T06:23:04.021Z,78.45
2022-08-11T06:25:33.065Z,76.65
2022-08-11T06:28:00.889Z,77.73
2022-08-11T06:30:42.155Z,76.46
2022-08-11T06:33:12.655Z,76.06
2022-08-11T06:36:11.766Z,74.89
2022-08-11T06:39:04.611Z,76.13
2022-08-11T06:41:45.202Z,76.07
2022-08-11T06:44:11.938Z,75.17
2022-08-11T06:46:51.347Z,76.40
2022-08-11T06:49:50.989Z,74.51
2022-08-11T06:52:19.781Z,72.10
2022-08-11T06:55:56.743Z,71.00
2022-08-11T06:58:47.454Z,70.60
2022-08-11T07:01:20.137Z,68.50
2022-08-11T07:04:00.570Z,70.47
2022-08-11T07:07:20.395Z,70.43
2022-08-11T07:10:08.733Z,69.74
2022-08-11T07:13:00.090Z,72.74
2022-08-11T07:16:12.637Z,67.36
2022-08-11T07:18:53.180Z,71.74
2022-08-11T07:22:02.244Z,66.69
2022-08-11T07:24:59.415Z,68.83
2022-08-11T07:28:12.062Z,66.51
2022-08-11T07:30:41.665Z,64.51
2022-08-11T07:33:10.493Z,63.70
2022-08-11T07:35:53.356Z,61.11
2022-08-11T07:38:43.241Z,63.27
2022-08-11T07:41:14.994Z,59.34
2022-08-11T07:43:43.239Z,59.75
2022-08-11T07:46:30.342Z,58.13
2022-08-11T07:49:16.574Z,56.04
2022-08-11T07:52:03.464Z,55.87
2022-08-11T07:54:33.481Z,55.29
2022-08-11T07:57:09.294Z,57.81
2022-08-11T08:00:05.497Z,57.79
2022-08-11T08:02:51.642Z,57.99
2022-08-11T08:05:37.754Z,56.91
2022-08-11T08:08:26.478Z,54.13
2022-08-11T08:11:14.313Z,55.02
2022-08-11T08:14:01.371Z,54.53
2022-08-11T08:16:49.093Z,55.68
2022-08-11T08:19:19.055Z,58.98
2022-08-11T08:21:47.280Z,56.90
2022-08-11T08:24:15.288Z,56.88
2022-08-11T08:27:00.477Z,58.51
2022-08-11T08:29:55.509Z,59.18
2022-08-11T08:32:22.849Z,57.02
2022-08-11T08:34:55.271Z,59.41
2022-08-11T08:37:46.614Z,57.33
2022-08-11T08:40:13.389Z,59.15
2022-08-11T08:42:46.346Z,60.33
2022-08-11T08:45:18.630Z,60.59
2022-08-11T08:48:08.501Z,61.90
2022-08-11T08:51:02.943Z,60.87
2022-08-11T08:53:34.578Z,62.75
2022-08-11T08:56:02.435Z,58.02
2022-08-11T08:58:31.134Z,58.88
2022-08-11T09:01:00.114Z,57.96
2022-08-11T09:04:05.152Z,58.66
2022-08-11T09:06:17.291Z,56.23
2022-08-11T09:08:45.208Z,55.43
2022-08-11T09:11:32.310Z,51.03
2022-08-11T09:14:04.873Z,53.67
2022-08-11T09:16:34.109Z,53.65
2022-08-11T09:19:01.665Z,54.47
2022-08-11T09:21:48.257Z,53.70
2022-08-11T09:24:35.334Z,52.69
2022-08-11T09:27:06.595Z,52.01
2022-08-11T09:29:34.046Z,52.87
2022-08-11T09:32:01.839Z,53.93
2022-08-11T09:34:29.106Z,54.54
2022-08-11T09:37:28.446Z,55.21
2022-08-11T09:40:21.405Z,53.11
2022-08-11T09:43:13.293Z,54.91
2022-08-11T09:45:40.728Z,51.66
2022-08-11T09:48:08.173Z,51.95
2022-08-11T09:50:35.823Z,51.04
2022-08-11T09:53:37.238Z,51.22
2022-08-11T09:55:53.407Z,50.64
2022-08-11T09:58:42.376Z,48.87
2022-08-11T10:01:27.574Z,49.52
2022-08-11T10:04:08.797Z,49.98
2022-08-11T10:06:57.897Z,48.81
2022-08-11T10:09:26.319Z,50.28
2022-08-11T10:11:58.326Z,51.53
2022-08-11T10:14:46.145Z,47.79
2022-08-11T10:17:14.799Z,45.75
2022-08-11T10:19:43.558Z,46.84
2022-08-11T10:22:32.178Z,45.58
2022-08-11T10:25:19.597Z,44.62
2022-08-11T10:28:30.800Z,45.10
2022-08-11T10:30:59.985Z,45.69
2022-08-11T10:33:59.428Z,45.98
2022-08-11T10:36:33.892Z,46.39
2022-08-11T10:39:02.441Z,45.94
2022-08-11T10:42:06.111Z,44.14
2022-08-11T10:44:46.060Z,45.50
2022-08-11T10:47:33.390Z,46.94
2022-08-11T10:50:23.156Z,45.34
2022-08-11T10:53:09.793Z,46.54
2022-08-11T10:55:58.434Z,45.70
2022-08-11T10:58:44.931Z,44.75
2022-08-11T11:01:12.368Z,43.78
2022-08-11T11:03:39.750Z,45.61
2022-08-11T11:06:27.887Z,43.82
2022-08-11T11:09:04.489Z,44.77
2022-08-11T11:11:55.674Z,44.52
2022-08-11T11:14:46.385Z,44.38
2022-08-11T11:17:49.282Z,45.48
2022-08-11T11:20:36.016Z,44.28
2022-08-11T11:23:12.023Z,45.80
2022-08-11T11:26:12.794Z,44.64
2022-08-11T11:29:10.404Z,44.41
2022-08-11T11:32:22.122Z,44.05
2022-08-11T11:35:09.848Z,44.42
2022-08-11T11:37:38.246Z,44.59
2022-08-11T11:40:16.799Z,42.54
2022-08-11T11:42:47.888Z,42.88
2022-08-11T11:45:24.184Z,41.92
2022-08-11T11:47:53.768Z,42.14
2022-08-11T11:50:24.980Z,41.38
2022-08-11T11:52:55.625Z,40.37
2022-08-11T11:55:25.566Z,40.19
2022-08-11T11:58:15.884Z,40.86
2022-08-11T12:01:05.057Z,41.51
2022-08-11T12:03:33.491Z,40.66
2022-08-11T12:06:01.986Z,40.49
2022-08-11T12:08:29.265Z,39.98
2022-08-11T12:11:17.845Z,40.20
2022-08-11T12:13:50.596Z,38.69
2022-08-11T12:16:33.910Z,39.20
2022-08-11T12:19:10.388Z,38.53
2022-08-11T12:21:38.687Z,39.24
2022-08-11T12:24:29.329Z,37.41
2022-08-11T12:27:17.860Z,40.01
2022-08-11T12:29:50.245Z,41.60
2022-08-11T12:32:22.246Z,42.51
2022-08-11T12:34:50.304Z,44.68
2022-08-11T12:37:23.664Z,46.81
2022-08-11T12:40:42.559Z,47.00
2022-08-11T12:43:24.310Z,46.97
2022-08-11T12:46:10.513Z,50.61
2022-08-11T12:49:03.406Z,51.89
2022-08-11T12:52:01.619Z,52.58
2022-08-11T12:55:03.502Z,51.33
2022-08-11T12:57:55.680Z,50.69
2022-08-11T13:00:42.361Z,49.61
2022-08-11T13:03:30.326Z,52.56
2022-08-11T13:05:59.916Z,54.84
2022-08-11T13:08:29.491Z,54.83
2022-08-11T13:11:17.763Z,54.80
2022-08-11T13:13:55.967Z,53.98
2022-08-11T13:16:31.596Z,53.81
2022-08-11T13:19:01.171Z,52.79
2022-08-11T13:21:28.717Z,52.38
2022-08-11T13:24:00.792Z,51.22
2022-08-11T13:26:47.466Z,49.83
2022-08-11T13:29:22.512Z,48.96
2022-08-11T13:31:51.403Z,48.55
2022-08-11T13:34:20.044Z,48.28
2022-08-11T13:36:52.253Z,47.72
2022-08-11T13:39:20.798Z,46.54
2022-08-11T13:41:50.752Z,46.25
2022-08-11T13:44:24.788Z,45.57
2022-08-11T13:46:55.364Z,44.15
2022-08-11T13:49:22.772Z,43.16
2022-08-11T13:51:50.456Z,43.10
2022-08-11T13:54:21.463Z,43.62
2022-08-11T13:56:52.887Z,43.25
2022-08-11T13:59:29.744Z,41.82
2022-08-11T14:02:22.252Z,41.46
2022-08-11T14:05:07.355Z,42.05
2022-08-11T14:08:02.299Z,41.26
2022-08-11T14:10:31.416Z,41.76
2022-08-11T14:13:21.589Z,42.49
2022-08-11T14:15:51.986Z,43.01
2022-08-11T14:18:22.513Z,42.75
2022-08-11T14:21:12.951Z,42.95
2022-08-11T14:23:42.424Z,42.23
2022-08-11T14:26:26.208Z,41.86
2022-08-11T14:31:50.634Z,42.68
2022-08-11T14:34:21.630Z,43.05
2022-08-11T14:36:52.431Z,43.93
2022-08-11T14:39:23.284Z,44.19
2022-08-11T14:42:19.697Z,44.33
2022-08-11T14:45:16.382Z,43.98
2022-08-11T14:47:46.143Z,43.35
2022-08-11T14:50:17.946Z,43.84
2022-08-11T14:52:50.959Z,42.22
2022-08-11T14:55:39.051Z,41.93
2022-08-11T14:58:10.241Z,42.51
2022-08-11T15:00:38.588Z,42.14
2022-08-11T15:03:12.992Z,42.58
2022-08-11T15:05:56.453Z,42.12
2022-08-11T15:08:46.196Z,43.93
2022-08-11T15:11:33.536Z,44.49
2022-08-11T15:14:02.385Z,45.47
2022-08-11T15:16:48.326Z,45.66
2022-08-11T15:19:16.609Z,45.06
2022-08-11T15:22:02.129Z,45.77
2022-08-11T15:24:30.731Z,46.06
2022-08-11T15:27:18.920Z,45.87
2022-08-11T15:30:05.905Z,47.03
2022-08-11T15:32:53.394Z,47.50
2022-08-11T15:35:39.395Z,47.64
2022-08-11T15:38:08.859Z,46.90
2022-08-11T15:40:57.582Z,46.23
2022-08-11T15:44:01.057Z,47.20
2022-08-11T15:46:35.301Z,47.27
2022-08-11T15:49:08.198Z,47.45
2022-08-11T15:51:41.175Z,48.21
2022-08-11T15:54:11.698Z,48.42
2022-08-11T15:56:42.489Z,49.02
2022-08-11T15:59:41.852Z,48.81
2022-08-11T16:02:33.339Z,48.48
2022-08-11T16:05:04.212Z,48.22
2022-08-11T16:07:36.897Z,48.80
2022-08-11T16:10:21.680Z,50.86
2022-08-11T16:13:21.739Z,49.88
2022-08-11T16:16:13.588Z,50.19
2022-08-11T16:18:56.650Z,49.38
2022-08-11T16:21:40.187Z,49.00
2022-08-11T16:27:01.999Z,48.15
2022-08-11T16:27:09.295Z,48.41
2022-08-11T16:29:44.067Z,47.47
2022-08-11T16:32:18.794Z,47.01
2022-08-11T16:35:09.851Z,47.03
2022-08-11T16:37:56.785Z,46.00
2022-08-11T16:40:25.136Z,45.87
2022-08-11T16:43:12.195Z,45.63
2022-08-11T16:46:01.309Z,46.08
2022-08-11T16:48:35.671Z,45.94
2022-08-11T16:51:08.511Z,46.27
2022-08-11T16:53:59.649Z,45.60
2022-08-11T16:56:28.290Z,46.16
2022-08-11T16:59:16.303Z,46.77
2022-08-11T17:02:02.431Z,46.33
2022-08-11T17:05:00.561Z,46.50
2022-08-11T17:07:48.433Z,47.16
2022-08-11T17:11:16.789Z,46.88
2022-08-11T17:13:49.036Z,47.22
2022-08-11T17:16:28.004Z,47.50
2022-08-11T17:18:59.325Z,47.70
2022-08-11T17:22:01.474Z,47.68
2022-08-11T17:24:28.549Z,47.93
2022-08-11T17:27:00.906Z,48.12
2022-08-11T17:29:27.720Z,48.30
2022-08-11T17:32:14.582Z,48.00
2022-08-11T17:35:03.223Z,48.44
2022-08-11T17:37:33.293Z,48.55
2022-08-11T17:40:03.100Z,48.77
2022-08-11T17:42:50.450Z,49.24
2022-08-11T17:45:40.604Z,49.47
2022-08-11T17:48:27.371Z,49.86
2022-08-11T17:51:04.739Z,50.38
2022-08-11T17:54:18.171Z,50.60
2022-08-11T17:57:08.352Z,50.70
2022-08-11T17:59:56.675Z,50.90
2022-08-11T18:02:52.131Z,50.80
2022-08-11T18:05:21.867Z,50.68
2022-08-11T18:08:10.738Z,50.99
2022-08-11T18:10:57.922Z,50.64
2022-08-11T18:13:45.531Z,50.98
2022-08-11T18:16:31.276Z,50.71
2022-08-11T18:19:16.865Z,50.92
2022-08-11T18:22:14.674Z,50.71
2022-08-11T18:25:07.853Z,51.03
2022-08-11T18:27:54.948Z,51.13
2022-08-11T18:30:41.991Z,50.93
2022-08-11T18:36:40.471Z,51.38
2022-08-11T18:39:30.343Z,51.80
2022-08-11T18:42:29.106Z,51.92
2022-08-11T18:45:19.101Z,52.07
2022-08-11T18:48:11.564Z,52.18
2022-08-11T18:51:31.098Z,52.62
2022-08-11T18:54:10.546Z,53.05
2022-08-11T18:56:56.666Z,53.41
2022-08-11T18:59:46.288Z,54.28
2022-08-11T19:02:49.434Z,53.62
2022-08-11T19:06:32.385Z,53.33
2022-08-11T19:08:47.415Z,54.27
2022-08-11T19:11:33.527Z,53.45
2022-08-11T19:14:22.200Z,53.30
2022-08-11T19:17:10.002Z,53.44
2022-08-11T19:19:57.990Z,53.34
2022-08-11T19:22:45.519Z,53.36
2022-08-11T19:25:32.628Z,53.91
2022-08-11T19:28:19.773Z,53.84
2022-08-11T19:31:05.330Z,54.12
2022-08-11T19:34:01.164Z,53.88
2022-08-11T19:36:57.728Z,53.83
2022-08-11T19:39:45.548Z,53.83
2022-08-11T19:42:31.861Z,53.83
2022-08-11T19:45:19.527Z,54.04
2022-08-11T19:48:30.787Z,53.88
2022-08-11T19:51:13.443Z,54.05
2022-08-11T19:54:00.469Z,54.49
2022-08-11T19:56:46.635Z,54.31
2022-08-11T19:59:32.700Z,54.56
2022-08-11T20:02:18.351Z,54.41
2022-08-11T20:05:04.087Z,54.28
2022-08-11T20:07:50.646Z,54.95
2022-08-11T20:10:40.863Z,54.88
2022-08-11T20:13:28.154Z,54.76
2022-08-11T20:16:14.886Z,54.56
2022-08-11T20:19:01.352Z,55.51
2022-08-11T20:21:48.081Z,55.28
2022-08-11T20:24:36.487Z,56.05
2022-08-11T20:27:24.595Z,55.41
2022-08-11T20:30:12.354Z,55.49
2022-08-11T20:33:00.628Z,55.49
2022-08-11T20:35:48.367Z,55.88
2022-08-11T20:38:35.573Z,55.74
2022-08-11T20:41:22.540Z,55.99
2022-08-11T20:44:09.933Z,56.25
2022-08-11T20:46:58.146Z,56.87
2022-08-11T20:49:51.608Z,57.08
2022-08-11T20:52:47.158Z,57.52
2022-08-11T20:55:51.382Z,57.99
2022-08-11T20:59:13.305Z,58.50
2022-08-11T21:01:45.813Z,59.45
2022-08-11T21:04:32.480Z,60.08
2022-08-11T21:07:28.087Z,60.04
2022-08-11T21:10:24.024Z,60.76
2022-08-11T21:13:26.506Z,61.32
2022-08-11T21:16:26.223Z,61.43
2022-08-11T21:19:59.920Z,61.93
2022-08-11T21:22:59.073Z,62.04
2022-08-11T21:25:55.677Z,62.69
2022-08-11T21:28:47.715Z,64.17
2022-08-11T21:31:34.375Z,65.72
2022-08-11T21:34:21.737Z,67.26
2022-08-11T21:37:08.919Z,68.24
2022-08-11T21:39:55.278Z,69.46
2022-08-11T21:42:42.598Z,70.90
2022-08-11T21:45:29.021Z,71.39
2022-08-11T21:48:15.552Z,72.29
2022-08-11T21:51:01.431Z,72.50
2022-08-11T21:53:47.731Z,73.58
2022-08-11T21:56:33.810Z,73.62
2022-08-11T21:59:20.549Z,74.02
2022-08-11T22:02:12.359Z,74.94
2022-08-11T22:04:58.449Z,75.43
2022-08-11T22:07:43.670Z,76.59
2022-08-11T22:10:42.125Z,76.01
2022-08-11T22:13:32.300Z,76.24
2022-08-11T22:16:20.420Z,77.00
2022-08-11T22:19:09.357Z,77.13
2022-08-11T22:22:03.127Z,77.70
2022-08-11T22:24:52.291Z,78.14
2022-08-11T22:27:39.457Z,78.38
2022-08-11T22:30:26.908Z,79.12
2022-08-11T22:33:15.098Z,78.54
2022-08-11T22:36:02.413Z,78.86
2022-08-11T22:38:49.445Z,80.38
2022-08-11T22:41:35.612Z,80.23
2022-08-11T22:44:21.495Z,81.16
2022-08-11T22:47:09.507Z,80.38
2022-08-11T22:49:58.643Z,80.18
2022-08-11T22:52:46.239Z,79.91
2022-08-11T22:55:34.952Z,79.27
2022-08-11T22:58:24.255Z,79.86
2022-08-11T23:01:09.907Z,81.07
2022-08-11T23:03:56.687Z,80.46
2022-08-11T23:06:42.614Z,79.97
2022-08-11T23:09:28.317Z,80.22
2022-08-11T23:12:13.452Z,81.20
2022-08-11T23:15:00.034Z,81.40
2022-08-11T23:17:46.876Z,80.87
2022-08-11T23:20:36.975Z,81.11
2022-08-11T23:23:33.166Z,81.54
2022-08-11T23:26:20.168Z,81.96
2022-08-11T23:29:06.262Z,82.60
2022-08-11T23:31:54.177Z,82.87
2022-08-11T23:35:36.991Z,82.38
2022-08-11T23:38:00.240Z,83.26
2022-08-11T23:40:45.802Z,83.18
2022-08-11T23:43:41.565Z,83.67
2022-08-11T23:46:27.517Z,83.51
2022-08-11T23:49:17.430Z,83.81
2022-08-11T23:52:03.490Z,85.10
2022-08-11T23:54:49.421Z,84.94
2022-08-11T23:57:35.006Z,84.58
